sensor_id;sensor_type;location;lat;lon;timestamp;pressure;altitude;pressure_sealevel;temperature;humidity
48216;BME280;34005;48.844;10.098;2023-08-07T00:00:25;96390.91;;;12.30;85.41
48216;BME280;34005;48.844;10.098;2023-08-07T00:02:53;96384.44;;;12.26;84.65
48216;BME280;34005;48.844;10.098;2023-08-07T00:05:20;96395.31;;;12.23;84.79
48216;BME280;34005;48.844;10.098;2023-08-07T00:07:48;96392.88;;;12.21;85.25
48216;BME280;34005;48.844;10.098;2023-08-07T00:10:16;96388.66;;;12.20;85.69
48216;BME280;34005;48.844;10.098;2023-08-07T00:12:44;96391.28;;;12.20;85.08
48216;BME280;34005;48.844;10.098;2023-08-07T00:15:12;96403.53;;;12.20;85.08
48216;BME280;34005;48.844;10.098;2023-08-07T00:17:40;96406.16;;;12.20;84.71
48216;BME280;34005;48.844;10.098;2023-08-07T00:20:09;96398.50;;;12.18;84.74
48216;BME280;34005;48.844;10.098;2023-08-07T00:22:36;96395.06;;;12.18;84.38
48216;BME280;34005;48.844;10.098;2023-08-07T00:25:04;96404.13;;;12.15;84.30
48216;BME280;34005;48.844;10.098;2023-08-07T00:27:32;96401.09;;;12.11;84.15
48216;BME280;34005;48.844;10.098;2023-08-07T00:30:00;96391.81;;;12.09;84.58
48216;BME280;34005;48.844;10.098;2023-08-07T00:32:27;96399.66;;;12.09;85.21
48216;BME280;34005;48.844;10.098;2023-08-07T00:34:56;96403.31;;;12.08;85.26
48216;BME280;34005;48.844;10.098;2023-08-07T00:37:24;96397.66;;;12.11;85.39
48216;BME280;34005;48.844;10.098;2023-08-07T00:39:51;96382.81;;;12.11;85.51
48216;BME280;34005;48.844;10.098;2023-08-07T00:42:19;96390.44;;;12.13;85.57
48216;BME280;34005;48.844;10.098;2023-08-07T00:44:47;96388.66;;;12.13;85.58
48216;BME280;34005;48.844;10.098;2023-08-07T00:47:14;96401.31;;;12.10;85.02
48216;BME280;34005;48.844;10.098;2023-08-07T00:49:42;96393.66;;;12.08;84.99
48216;BME280;34005;48.844;10.098;2023-08-07T00:52:11;96400.25;;;12.04;85.06
48216;BME280;34005;48.844;10.098;2023-08-07T00:54:39;96400.47;;;12.03;84.74
48216;BME280;34005;48.844;10.098;2023-08-07T00:57:10;96409.50;;;12.00;85.50
48216;BME280;34005;48.844;10.098;2023-08-07T00:59:39;96407.47;;;11.95;84.71
48216;BME280;34005;48.844;10.098;2023-08-07T01:02:07;96414.06;;;11.91;84.53
48216;BME280;34005;48.844;10.098;2023-08-07T01:04:36;96416.44;;;11.86;84.52
48216;BME280;34005;48.844;10.098;2023-08-07T01:07:04;96418.63;;;11.83;84.85
48216;BME280;34005;48.844;10.098;2023-08-07T01:09:33;96420.66;;;11.81;85.19
48216;BME280;34005;48.844;10.098;2023-08-07T01:12:07;96418.84;;;11.81;85.35
48216;BME280;34005;48.844;10.098;2023-08-07T01:14:48;96411.63;;;11.83;85.66
48216;BME280;34005;48.844;10.098;2023-08-07T01:17:19;96416.44;;;11.86;84.93
48216;BME280;34005;48.844;10.098;2023-08-07T01:19:49;96422.88;;;11.84;84.36
48216;BME280;34005;48.844;10.098;2023-08-07T01:22:19;96435.75;;;11.85;84.49
48216;BME280;34005;48.844;10.098;2023-08-07T01:24:48;96430.91;;;11.82;84.01
48216;BME280;34005;48.844;10.098;2023-08-07T01:30:11;96428.28;;;11.82;86.12
48216;BME280;34005;48.844;10.098;2023-08-07T01:32:45;96427.47;;;11.82;84.75
48216;BME280;34005;48.844;10.098;2023-08-07T01:35:16;96430.09;;;11.82;85.09
48216;BME280;34005;48.844;10.098;2023-08-07T01:37:46;96430.91;;;11.82;85.43
48216;BME280;34005;48.844;10.098;2023-08-07T01:40:16;96424.88;;;11.82;85.04
48216;BME280;34005;48.844;10.098;2023-08-07T01:42:44;96429.31;;;11.81;84.59
48216;BME280;34005;48.844;10.098;2023-08-07T01:45:13;96427.66;;;11.80;84.82
48216;BME280;34005;48.844;10.098;2023-08-07T01:47:41;96427.47;;;11.82;84.81
48216;BME280;34005;48.844;10.098;2023-08-07T01:50:09;96431.34;;;11.86;85.82
48216;BME280;34005;48.844;10.098;2023-08-07T01:52:36;96440.63;;;11.88;84.98
48216;BME280;34005;48.844;10.098;2023-08-07T01:55:06;96437.00;;;11.89;85.20
48216;BME280;34005;48.844;10.098;2023-08-07T01:57:33;96441.84;;;11.92;84.63
48216;BME280;34005;48.844;10.098;2023-08-07T02:00:01;96435.00;;;11.91;85.12
48216;BME280;34005;48.844;10.098;2023-08-07T02:02:30;96442.66;;;11.93;85.61
48216;BME280;34005;48.844;10.098;2023-08-07T02:04:57;96447.28;;;11.98;85.86
48216;BME280;34005;48.844;10.098;2023-08-07T02:07:26;96431.22;;;11.94;84.02
48216;BME280;34005;48.844;10.098;2023-08-07T02:09:54;96429.16;;;11.89;84.96
48216;BME280;34005;48.844;10.098;2023-08-07T02:12:23;96428.53;;;11.87;82.99
48216;BME280;34005;48.844;10.098;2023-08-07T02:14:51;96432.13;;;11.86;84.31
48216;BME280;34005;48.844;10.098;2023-08-07T02:17:20;96433.16;;;11.85;83.27
48216;BME280;34005;48.844;10.098;2023-08-07T02:19:48;96441.97;;;11.84;84.38
48216;BME280;34005;48.844;10.098;2023-08-07T02:22:15;96438.75;;;11.82;83.78
48216;BME280;34005;48.844;10.098;2023-08-07T02:24:43;96437.13;;;11.81;83.49
48216;BME280;34005;48.844;10.098;2023-08-07T02:27:11;96440.16;;;11.85;84.52
48216;BME280;34005;48.844;10.098;2023-08-07T02:29:39;96442.97;;;11.83;82.88
48216;BME280;34005;48.844;10.098;2023-08-07T02:32:07;96443.56;;;11.79;83.28
48216;BME280;34005;48.844;10.098;2023-08-07T02:34:35;96440.13;;;11.78;83.85
48216;BME280;34005;48.844;10.098;2023-08-07T02:37:03;96447.59;;;11.81;84.10
48216;BME280;34005;48.844;10.098;2023-08-07T02:39:31;96444.75;;;11.83;83.39
48216;BME280;34005;48.844;10.098;2023-08-07T02:41:59;96453.44;;;11.83;83.00
48216;BME280;34005;48.844;10.098;2023-08-07T02:44:27;96451.81;;;11.82;82.41
48216;BME280;34005;48.844;10.098;2023-08-07T02:46:55;96451.19;;;11.80;81.76
48216;BME280;34005;48.844;10.098;2023-08-07T02:49:24;96450.56;;;11.78;82.46
48216;BME280;34005;48.844;10.098;2023-08-07T02:51:51;96452.16;;;11.72;81.47
48216;BME280;34005;48.844;10.098;2023-08-07T02:54:19;96460.94;;;11.65;82.51
48216;BME280;34005;48.844;10.098;2023-08-07T02:56:47;96460.53;;;11.61;82.74
48216;BME280;34005;48.844;10.098;2023-08-07T02:59:15;96462.94;;;11.63;83.61
48216;BME280;34005;48.844;10.098;2023-08-07T03:01:43;96461.97;;;11.64;83.73
48216;BME280;34005;48.844;10.098;2023-08-07T03:04:12;96473.22;;;11.64;82.50
48216;BME280;34005;48.844;10.098;2023-08-07T03:06:40;96460.34;;;11.63;83.56
48216;BME280;34005;48.844;10.098;2023-08-07T03:09:07;96462.94;;;11.63;83.06
48216;BME280;34005;48.844;10.098;2023-08-07T03:11:35;96459.72;;;11.61;82.47
48216;BME280;34005;48.844;10.098;2023-08-07T03:14:03;96458.47;;;11.57;83.23
48216;BME280;34005;48.844;10.098;2023-08-07T03:16:30;96468.13;;;11.56;82.57
48216;BME280;34005;48.844;10.098;2023-08-07T03:18:58;96475.34;;;11.54;82.86
48216;BME280;34005;48.844;10.098;2023-08-07T03:21:27;96476.19;;;11.54;82.54
48216;BME280;34005;48.844;10.098;2023-08-07T03:23:54;96474.53;;;11.53;84.01
48216;BME280;34005;48.844;10.098;2023-08-07T03:26:22;96474.53;;;11.53;82.95
48216;BME280;34005;48.844;10.098;2023-08-07T03:28:50;96482.56;;;11.52;83.23
48216;BME280;34005;48.844;10.098;2023-08-07T03:31:17;96488.22;;;11.55;84.37
48216;BME280;34005;48.844;10.098;2023-08-07T03:33:45;96489.81;;;11.57;82.58
48216;BME280;34005;48.844;10.098;2023-08-07T03:36:12;96494.66;;;11.53;82.01
48216;BME280;34005;48.844;10.098;2023-08-07T03:38:41;96496.47;;;11.52;81.85
48216;BME280;34005;48.844;10.098;2023-08-07T03:41:09;96497.63;;;11.50;81.91
48216;BME280;34005;48.844;10.098;2023-08-07T03:43:37;96500.06;;;11.51;81.80
48216;BME280;34005;48.844;10.098;2023-08-07T03:46:04;96509.53;;;11.52;81.59
48216;BME280;34005;48.844;10.098;2023-08-07T03:48:32;96507.88;;;11.51;81.15
48216;BME280;34005;48.844;10.098;2023-08-07T03:51:03;96512.31;;;11.51;82.04
48216;BME280;34005;48.844;10.098;2023-08-07T03:53:31;96522.38;;;11.54;82.87
48216;BME280;34005;48.844;10.098;2023-08-07T03:56:00;96516.34;;;11.53;81.53
48216;BME280;34005;48.844;10.098;2023-08-07T03:58:28;96517.53;;;11.51;81.99
48216;BME280;34005;48.844;10.098;2023-08-07T04:00:55;96516.72;;;11.50;81.79
48216;BME280;34005;48.844;10.098;2023-08-07T04:03:23;96517.16;;;11.54;83.66
48216;BME280;34005;48.844;10.098;2023-08-07T04:05:52;96518.56;;;11.57;82.47
48216;BME280;34005;48.844;10.098;2023-08-07T04:08:20;96525.25;;;11.59;81.73
48216;BME280;34005;48.844;10.098;2023-08-07T04:10:57;96515.94;;;11.57;80.79
48216;BME280;34005;48.844;10.098;2023-08-07T04:13:27;96513.97;;;11.59;81.20
48216;BME280;34005;48.844;10.098;2023-08-07T04:15:55;96515.59;;;11.60;83.12
48216;BME280;34005;48.844;10.098;2023-08-07T04:18:23;96518.81;;;11.62;81.81
48216;BME280;34005;48.844;10.098;2023-08-07T04:20:51;96528.03;;;11.58;81.63
48216;BME280;34005;48.844;10.098;2023-08-07T04:23:20;96524.81;;;11.55;81.52
48216;BME280;34005;48.844;10.098;2023-08-07T04:25:48;96519.75;;;11.54;81.05
48216;BME280;34005;48.844;10.098;2023-08-07T04:28:16;96518.97;;;11.53;81.50
48216;BME280;34005;48.844;10.098;2023-08-07T04:30:49;96519.97;;;11.52;80.39
48216;BME280;34005;48.844;10.098;2023-08-07T04:33:17;96523.56;;;11.51;80.86
48216;BME280;34005;48.844;10.098;2023-08-07T04:35:44;96519.97;;;11.52;80.41
48216;BME280;34005;48.844;10.098;2023-08-07T04:38:13;96524.38;;;11.52;81.07
48216;BME280;34005;48.844;10.098;2023-08-07T04:40:44;96523.56;;;11.51;81.12
48216;BME280;34005;48.844;10.098;2023-08-07T04:43:13;96530.41;;;11.52;81.09
48216;BME280;34005;48.844;10.098;2023-08-07T04:45:40;96526.00;;;11.53;80.70
48216;BME280;34005;48.844;10.098;2023-08-07T04:48:10;96532.59;;;11.49;80.48
48216;BME280;34005;48.844;10.098;2023-08-07T04:50:38;96532.41;;;11.50;81.28
48216;BME280;34005;48.844;10.098;2023-08-07T04:53:06;96535.19;;;11.49;80.65
48216;BME280;34005;48.844;10.098;2023-08-07T04:55:33;96538.25;;;11.52;81.79
48216;BME280;34005;48.844;10.098;2023-08-07T04:58:01;96541.50;;;11.54;81.82
48216;BME280;34005;48.844;10.098;2023-08-07T05:00:29;96546.31;;;11.58;81.24
48216;BME280;34005;48.844;10.098;2023-08-07T05:02:56;96555.75;;;11.59;81.53
48216;BME280;34005;48.844;10.098;2023-08-07T05:05:27;96556.78;;;11.58;82.22
48216;BME280;34005;48.844;10.098;2023-08-07T05:07:55;96555.75;;;11.59;81.98
48216;BME280;34005;48.844;10.098;2023-08-07T05:10:24;96555.75;;;11.59;82.59
48216;BME280;34005;48.844;10.098;2023-08-07T05:12:52;96556.16;;;11.55;81.38
48216;BME280;34005;48.844;10.098;2023-08-07T05:15:21;96554.09;;;11.51;82.21
48216;BME280;34005;48.844;10.098;2023-08-07T05:17:50;96560.13;;;11.51;82.69
48216;BME280;34005;48.844;10.098;2023-08-07T05:20:18;96539.22;;;11.51;82.96
48216;BME280;34005;48.844;10.098;2023-08-07T05:22:47;96552.13;;;11.53;83.86
48216;BME280;34005;48.844;10.098;2023-08-07T05:25:15;96560.56;;;11.55;84.25
48216;BME280;34005;48.844;10.098;2023-08-07T05:27:44;96560.56;;;11.55;83.75
48216;BME280;34005;48.844;10.098;2023-08-07T05:30:12;96570.22;;;11.54;83.96
48216;BME280;34005;48.844;10.098;2023-08-07T05:32:40;96575.84;;;11.58;84.12
48216;BME280;34005;48.844;10.098;2023-08-07T05:35:08;96570.28;;;11.61;83.59
48216;BME280;34005;48.844;10.098;2023-08-07T05:37:36;96576.31;;;11.62;84.57
48216;BME280;34005;48.844;10.098;2023-08-07T05:40:06;96578.13;;;11.61;85.30
48216;BME280;34005;48.844;10.098;2023-08-07T05:42:34;96576.13;;;11.63;84.53
48216;BME280;34005;48.844;10.098;2023-08-07T05:45:02;96573.50;;;11.63;83.65
48216;BME280;34005;48.844;10.098;2023-08-07T05:47:32;96590.00;;;11.64;83.59
48216;BME280;34005;48.844;10.098;2023-08-07T05:50:00;96586.38;;;11.65;84.33
48216;BME280;34005;48.844;10.098;2023-08-07T05:52:28;96578.16;;;11.68;84.73
48216;BME280;34005;48.844;10.098;2023-08-07T05:54:55;96587.25;;;11.72;85.63
48216;BME280;34005;48.844;10.098;2023-08-07T05:57:24;96586.06;;;11.74;84.87
48216;BME280;34005;48.844;10.098;2023-08-07T05:59:52;96592.09;;;11.75;84.03
48216;BME280;34005;48.844;10.098;2023-08-07T06:02:20;96589.66;;;11.73;83.97
48216;BME280;34005;48.844;10.098;2023-08-07T06:04:47;96590.44;;;11.74;84.15
48216;BME280;34005;48.844;10.098;2023-08-07T06:07:15;96609.00;;;11.79;84.81
48216;BME280;34005;48.844;10.098;2023-08-07T06:09:43;96594.94;;;11.80;84.24
48216;BME280;34005;48.844;10.098;2023-08-07T06:12:10;96598.72;;;11.78;83.02
48216;BME280;34005;48.844;10.098;2023-08-07T06:14:39;96594.88;;;11.73;81.96
48216;BME280;34005;48.844;10.098;2023-08-07T06:17:07;96596.88;;;11.71;81.85
48216;BME280;34005;48.844;10.098;2023-08-07T06:19:35;96596.88;;;11.71;82.15
48216;BME280;34005;48.844;10.098;2023-08-07T06:22:03;96609.75;;;11.73;82.51
48216;BME280;34005;48.844;10.098;2023-08-07T06:24:30;96604.53;;;11.73;81.62
48216;BME280;34005;48.844;10.098;2023-08-07T06:26:58;96608.56;;;11.75;83.06
48216;BME280;34005;48.844;10.098;2023-08-07T06:29:26;96611.06;;;11.84;84.81
48216;BME280;34005;48.844;10.098;2023-08-07T06:31:55;96617.97;;;11.91;83.94
48216;BME280;34005;48.844;10.098;2023-08-07T06:34:23;96614.97;;;11.94;82.40
48216;BME280;34005;48.844;10.098;2023-08-07T06:36:50;96626.06;;;11.97;81.55
48216;BME280;34005;48.844;10.098;2023-08-07T06:39:18;96618.84;;;11.99;82.79
48216;BME280;34005;48.844;10.098;2023-08-07T06:41:45;96620.44;;;12.00;82.49
48216;BME280;34005;48.844;10.098;2023-08-07T06:44:13;96622.44;;;11.98;81.42
48216;BME280;34005;48.844;10.098;2023-08-07T06:46:41;96626.06;;;11.97;81.22
48216;BME280;34005;48.844;10.098;2023-08-07T06:49:10;96625.44;;;11.94;80.76
48216;BME280;34005;48.844;10.098;2023-08-07T06:51:37;96630.50;;;11.96;81.00
48216;BME280;34005;48.844;10.098;2023-08-07T06:54:05;96630.28;;;11.98;80.83
48216;BME280;34005;48.844;10.098;2023-08-07T06:56:32;96628.28;;;12.00;80.85
48216;BME280;34005;48.844;10.098;2023-08-07T06:59:00;96621.69;;;12.04;80.84
48216;BME280;34005;48.844;10.098;2023-08-07T07:01:27;96629.97;;;12.07;81.38
48216;BME280;34005;48.844;10.098;2023-08-07T07:03:55;96636.63;;;12.10;81.31
48216;BME280;34005;48.844;10.098;2023-08-07T07:06:24;96642.81;;;12.09;80.16
48216;BME280;34005;48.844;10.098;2023-08-07T07:08:52;96640.84;;;12.11;81.23
48216;BME280;34005;48.844;10.098;2023-08-07T07:11:21;96635.88;;;12.16;81.16
48216;BME280;34005;48.844;10.098;2023-08-07T07:13:50;96649.78;;;12.23;80.84
48216;BME280;34005;48.844;10.098;2023-08-07T07:16:18;96640.56;;;12.27;80.27
48216;BME280;34005;48.844;10.098;2023-08-07T07:18:49;96649.22;;;12.28;79.93
48216;BME280;34005;48.844;10.098;2023-08-07T07:21:17;96638.34;;;12.31;81.26
48216;BME280;34005;48.844;10.098;2023-08-07T07:23:46;96646.44;;;12.36;80.06
48216;BME280;34005;48.844;10.098;2023-08-07T07:26:13;96652.09;;;12.40;80.58
48216;BME280;34005;48.844;10.098;2023-08-07T07:28:41;96642.84;;;12.44;79.52
48216;BME280;34005;48.844;10.098;2023-08-07T07:31:09;96641.47;;;12.48;79.22
48216;BME280;34005;48.844;10.098;2023-08-07T07:33:38;96648.38;;;12.55;79.51
48216;BME280;34005;48.844;10.098;2023-08-07T07:36:14;96643.97;;;12.63;79.67
48216;BME280;34005;48.844;10.098;2023-08-07T07:38:44;96658.50;;;12.65;78.01
48216;BME280;34005;48.844;10.098;2023-08-07T07:41:14;96663.53;;;12.67;78.24
48216;BME280;34005;48.844;10.098;2023-08-07T07:43:42;96660.34;;;12.71;77.98
48216;BME280;34005;48.844;10.098;2023-08-07T07:46:10;96668.22;;;12.78;77.63
48216;BME280;34005;48.844;10.098;2023-08-07T07:48:37;96656.97;;;12.84;77.32
48216;BME280;34005;48.844;10.098;2023-08-07T07:51:05;96665.47;;;12.93;78.73
48216;BME280;34005;48.844;10.098;2023-08-07T07:53:33;96666.91;;;13.02;78.30
48216;BME280;34005;48.844;10.098;2023-08-07T07:56:00;96659.28;;;13.07;77.95
48216;BME280;34005;48.844;10.098;2023-08-07T07:58:29;96668.97;;;13.13;76.61
48216;BME280;34005;48.844;10.098;2023-08-07T08:00:57;96657.72;;;13.19;77.73
48216;BME280;34005;48.844;10.098;2023-08-07T08:03:24;96671.03;;;13.25;77.82
48216;BME280;34005;48.844;10.098;2023-08-07T08:05:53;96670.84;;;13.26;77.13
48216;BME280;34005;48.844;10.098;2023-08-07T08:08:20;96679.09;;;13.23;74.61
48216;BME280;34005;48.844;10.098;2023-08-07T08:10:48;96681.09;;;13.21;74.15
48216;BME280;34005;48.844;10.098;2023-08-07T08:13:17;96685.50;;;13.20;74.60
48216;BME280;34005;48.844;10.098;2023-08-07T08:15:47;96681.09;;;13.21;75.32
48216;BME280;34005;48.844;10.098;2023-08-07T08:18:14;96694.38;;;13.19;73.71
48216;BME280;34005;48.844;10.098;2023-08-07T08:20:42;96706.06;;;13.17;72.30
48216;BME280;34005;48.844;10.098;2023-08-07T08:23:10;96694.56;;;13.11;71.15
48216;BME280;34005;48.844;10.098;2023-08-07T08:25:37;96712.06;;;13.04;71.21
48216;BME280;34005;48.844;10.098;2023-08-07T08:28:05;96709.03;;;13.07;73.01
48216;BME280;34005;48.844;10.098;2023-08-07T08:30:33;96714.50;;;13.12;72.18
48216;BME280;34005;48.844;10.098;2023-08-07T08:33:02;96719.75;;;13.12;70.46
48216;BME280;34005;48.844;10.098;2023-08-07T08:35:32;96717.13;;;13.12;70.86
48216;BME280;34005;48.844;10.098;2023-08-07T08:37:59;96715.31;;;13.13;72.01
48216;BME280;34005;48.844;10.098;2023-08-07T08:40:28;96723.97;;;13.13;70.45
48216;BME280;34005;48.844;10.098;2023-08-07T08:42:56;96721.97;;;13.15;69.87
48216;BME280;34005;48.844;10.098;2023-08-07T08:45:25;96735.88;;;13.16;69.31
48216;BME280;34005;48.844;10.098;2023-08-07T08:47:55;96746.34;;;13.16;68.75
48216;BME280;34005;48.844;10.098;2023-08-07T08:50:28;96731.84;;;13.13;68.92
48216;BME280;34005;48.844;10.098;2023-08-07T08:52:56;96733.03;;;13.11;68.75
48216;BME280;34005;48.844;10.098;2023-08-07T08:55:25;96744.53;;;13.10;68.75
48216;BME280;34005;48.844;10.098;2023-08-07T08:57:54;96742.72;;;13.10;69.33
48216;BME280;34005;48.844;10.098;2023-08-07T09:00:23;96737.47;;;13.10;70.22
48216;BME280;34005;48.844;10.098;2023-08-07T09:02:52;96731.03;;;13.13;69.48
48216;BME280;34005;48.844;10.098;2023-08-07T09:05:20;96738.31;;;13.17;71.61
48216;BME280;34005;48.844;10.098;2023-08-07T09:07:49;96752.41;;;13.16;69.70
48216;BME280;34005;48.844;10.098;2023-08-07T09:10:18;96746.34;;;13.16;71.14
48216;BME280;34005;48.844;10.098;2023-08-07T09:12:53;96741.94;;;13.16;70.38
48216;BME280;34005;48.844;10.098;2023-08-07T09:15:21;96744.34;;;13.18;70.98
48216;BME280;34005;48.844;10.098;2023-08-07T09:17:53;96746.59;;;13.21;71.14
48216;BME280;34005;48.844;10.098;2023-08-07T09:20:22;96740.41;;;13.29;71.21
48216;BME280;34005;48.844;10.098;2023-08-07T09:22:51;96738.81;;;13.34;71.49
48216;BME280;34005;48.844;10.098;2023-08-07T09:25:26;96742.06;;;13.43;71.47
48216;BME280;34005;48.844;10.098;2023-08-07T09:27:55;96744.53;;;13.51;71.12
48216;BME280;34005;48.844;10.098;2023-08-07T09:30:26;96749.81;;;13.65;73.34
48216;BME280;34005;48.844;10.098;2023-08-07T09:32:56;96750.63;;;13.72;68.80
48216;BME280;34005;48.844;10.098;2023-08-07T09:35:24;96752.03;;;13.74;68.55
48216;BME280;34005;48.844;10.098;2023-08-07T09:37:53;96760.94;;;13.80;70.14
48216;BME280;34005;48.844;10.098;2023-08-07T09:40:21;96767.59;;;13.83;68.45
48216;BME280;34005;48.844;10.098;2023-08-07T09:42:50;96764.38;;;13.80;67.08
48216;BME280;34005;48.844;10.098;2023-08-07T09:45:20;96777.28;;;13.82;68.16
48216;BME280;34005;48.844;10.098;2023-08-07T09:47:57;96774.25;;;13.85;66.46
48216;BME280;34005;48.844;10.098;2023-08-07T09:50:25;96777.91;;;13.84;66.40
48216;BME280;34005;48.844;10.098;2023-08-07T09:52:55;96776.88;;;13.85;65.32
48216;BME280;34005;48.844;10.098;2023-08-07T09:55:24;96776.47;;;13.88;66.27
48216;BME280;34005;48.844;10.098;2023-08-07T09:57:52;96770.84;;;13.91;66.63
48216;BME280;34005;48.844;10.098;2023-08-07T10:00:21;96770.44;;;13.94;65.98
48216;BME280;34005;48.844;10.098;2023-08-07T10:02:50;96778.72;;;13.98;66.16
48216;BME280;34005;48.844;10.098;2023-08-07T10:05:18;96769.06;;;14.05;66.91
48216;BME280;34005;48.844;10.098;2023-08-07T10:07:47;96767.66;;;14.09;65.94
48216;BME280;34005;48.844;10.098;2023-08-07T10:10:17;96766.44;;;14.12;65.38
48216;BME280;34005;48.844;10.098;2023-08-07T10:12:44;96778.75;;;14.11;66.94
48216;BME280;34005;48.844;10.098;2023-08-07T10:15:14;96788.22;;;14.06;65.87
48216;BME280;34005;48.844;10.098;2023-08-07T10:17:43;96783.19;;;13.97;66.08
48216;BME280;34005;48.844;10.098;2023-08-07T10:20:11;96776.72;;;13.93;65.17
48216;BME280;34005;48.844;10.098;2023-08-07T10:22:40;96772.44;;;13.92;66.60
48216;BME280;34005;48.844;10.098;2023-08-07T10:25:10;96779.34;;;13.93;65.14
48216;BME280;34005;48.844;10.098;2023-08-07T10:27:41;96778.91;;;13.96;66.80
48216;BME280;34005;48.844;10.098;2023-08-07T10:30:11;96777.72;;;13.99;64.10
48216;BME280;34005;48.844;10.098;2023-08-07T10:32:42;96774.91;;;14.07;65.44
48216;BME280;34005;48.844;10.098;2023-08-07T10:35:23;96773.09;;;14.21;63.44
48216;BME280;34005;48.844;10.098;2023-08-07T10:37:52;96770.53;;;14.41;63.21
48216;BME280;34005;48.844;10.098;2023-08-07T10:40:20;96768.53;;;14.63;63.46
48216;BME280;34005;48.844;10.098;2023-08-07T10:42:55;96777.38;;;14.75;62.63
48216;BME280;34005;48.844;10.098;2023-08-07T10:45:25;96762.66;;;14.74;61.64
48216;BME280;34005;48.844;10.098;2023-08-07T10:48:04;96761.03;;;14.73;62.55
48216;BME280;34005;48.844;10.098;2023-08-07T10:50:34;96778.41;;;14.74;61.91
48216;BME280;34005;48.844;10.098;2023-08-07T10:53:03;96766.88;;;14.69;61.80
48216;BME280;34005;48.844;10.098;2023-08-07T10:55:32;96758.81;;;14.63;61.53
48216;BME280;34005;48.844;10.098;2023-08-07T10:58:22;96769.72;;;14.60;62.97
48216;BME280;34005;48.844;10.098;2023-08-07T11:00:52;96764.06;;;14.70;62.51
48216;BME280;34005;48.844;10.098;2023-08-07T11:03:25;96770.09;;;14.91;62.91
48216;BME280;34005;48.844;10.098;2023-08-07T11:05:53;96772.91;;;15.09;60.83
48216;BME280;34005;48.844;10.098;2023-08-07T11:08:22;96772.25;;;15.27;60.38
48216;BME280;34005;48.844;10.098;2023-08-07T11:10:51;96769.53;;;15.47;59.50
48216;BME280;34005;48.844;10.098;2023-08-07T11:13:18;96769.09;;;15.57;58.43
48216;BME280;34005;48.844;10.098;2023-08-07T11:15:49;96772.09;;;15.60;58.05
48216;BME280;34005;48.844;10.098;2023-08-07T11:18:17;96769.69;;;15.65;60.83
48216;BME280;34005;48.844;10.098;2023-08-07T11:20:45;96762.59;;;15.66;58.03
48216;BME280;34005;48.844;10.098;2023-08-07T11:23:14;96770.25;;;15.68;57.50
48216;BME280;34005;48.844;10.098;2023-08-07T11:25:42;96767.84;;;15.73;58.92
48216;BME280;34005;48.844;10.098;2023-08-07T11:28:10;96780.78;;;15.74;56.94
48216;BME280;34005;48.844;10.098;2023-08-07T11:30:37;96771.28;;;15.73;57.49
48216;BME280;34005;48.844;10.098;2023-08-07T11:33:07;96779.56;;;15.77;56.28
48216;BME280;34005;48.844;10.098;2023-08-07T11:35:35;96775.88;;;15.84;56.29
48216;BME280;34005;48.844;10.098;2023-08-07T11:38:02;96755.38;;;15.93;55.27
48216;BME280;34005;48.844;10.098;2023-08-07T11:40:30;96768.09;;;16.03;55.04
48216;BME280;34005;48.844;10.098;2023-08-07T11:42:58;96776.69;;;16.17;54.98
48216;BME280;34005;48.844;10.098;2023-08-07T11:45:26;96780.47;;;16.27;53.85
48216;BME280;34005;48.844;10.098;2023-08-07T11:47:54;96776.16;;;16.33;54.25
48216;BME280;34005;48.844;10.098;2023-08-07T11:50:24;96773.13;;;16.36;54.20
48216;BME280;34005;48.844;10.098;2023-08-07T11:52:52;96783.22;;;16.39;54.74
48216;BME280;34005;48.844;10.098;2023-08-07T11:55:20;96780.75;;;16.44;55.72
48216;BME280;34005;48.844;10.098;2023-08-07T11:57:47;96782.31;;;16.52;55.57
48216;BME280;34005;48.844;10.098;2023-08-07T12:00:16;96786.13;;;16.56;53.78
48216;BME280;34005;48.844;10.098;2023-08-07T12:02:44;96796.28;;;16.53;55.62
48216;BME280;34005;48.844;10.098;2023-08-07T12:05:12;96803.47;;;16.39;55.12
48216;BME280;34005;48.844;10.098;2023-08-07T12:07:41;96803.16;;;16.22;56.21
48216;BME280;34005;48.844;10.098;2023-08-07T12:10:10;96810.38;;;16.01;55.19
48216;BME280;34005;48.844;10.098;2023-08-07T12:12:38;96814.69;;;15.89;57.69
48216;BME280;34005;48.844;10.098;2023-08-07T12:15:07;96823.41;;;15.83;58.11
48216;BME280;34005;48.844;10.098;2023-08-07T12:17:36;96812.72;;;15.78;56.62
48216;BME280;34005;48.844;10.098;2023-08-07T12:20:05;96823.25;;;15.78;57.00
48216;BME280;34005;48.844;10.098;2023-08-07T12:22:36;96819.63;;;15.79;56.93
48216;BME280;34005;48.844;10.098;2023-08-07T12:25:06;96824.25;;;15.83;56.79
48216;BME280;34005;48.844;10.098;2023-08-07T12:27:34;96817.59;;;15.81;58.24
48216;BME280;34005;48.844;10.098;2023-08-07T12:30:02;96830.34;;;15.77;58.78
48216;BME280;34005;48.844;10.098;2023-08-07T12:32:30;96833.59;;;15.73;57.28
48216;BME280;34005;48.844;10.098;2023-08-07T12:34:57;96827.53;;;15.65;57.59
48216;BME280;34005;48.844;10.098;2023-08-07T12:37:28;96836.25;;;15.59;57.92
48216;BME280;34005;48.844;10.098;2023-08-07T12:39:56;96835.06;;;15.49;57.50
48216;BME280;34005;48.844;10.098;2023-08-07T12:42:45;96829.03;;;15.41;57.46
48216;BME280;34005;48.844;10.098;2023-08-07T12:45:12;96838.53;;;15.36;58.47
48216;BME280;34005;48.844;10.098;2023-08-07T12:47:42;96843.59;;;15.31;58.25
48216;BME280;34005;48.844;10.098;2023-08-07T12:50:11;96860.19;;;15.24;59.75
48216;BME280;34005;48.844;10.098;2023-08-07T12:52:39;96859.78;;;15.14;61.60
48216;BME280;34005;48.844;10.098;2023-08-07T12:55:07;96859.97;;;15.13;62.56
48216;BME280;34005;48.844;10.098;2023-08-07T12:57:36;96858.56;;;15.10;61.64
48216;BME280;34005;48.844;10.098;2023-08-07T13:00:06;96859.78;;;15.08;61.98